sensor_id;sensor_type;location;lat;lon;timestamp;P1;durP1;ratioP1;P2;durP2;ratioP2
44143;SDS011;43510;51.920;4.492;2022-08-18T00:00:35;12.10;;;7.03;;
44143;SDS011;43510;51.920;4.492;2022-08-18T00:03:03;14.27;;;7.03;;
44143;SDS011;43510;51.920;4.492;2022-08-18T00:05:31;13.85;;;7.20;;
44143;SDS011;43510;51.920;4.492;2022-08-18T00:07:58;13.45;;;7.07;;
44143;SDS011;43510;51.920;4.492;2022-08-18T00:10:24;13.63;;;7.47;;
44143;SDS011;43510;51.920;4.492;2022-08-18T00:12:50;14.88;;;7.25;;
44143;SDS011;43510;51.920;4.492;2022-08-18T00:15:15;15.90;;;7.50;;
44143;SDS011;43510;51.920;4.492;2022-08-18T00:17:42;15.80;;;7.82;;
44143;SDS011;43510;51.920;4.492;2022-08-18T00:20:09;20.90;;;8.35;;
44143;SDS011;43510;51.920;4.492;2022-08-18T00:22:38;18.17;;;7.50;;
44143;SDS011;43510;51.920;4.492;2022-08-18T00:25:04;15.18;;;8.18;;
44143;SDS011;43510;51.920;4.492;2022-08-18T00:27:31;18.08;;;7.95;;
44143;SDS011;43510;51.920;4.492;2022-08-18T00:29:58;12.95;;;7.68;;
44143;SDS011;43510;51.920;4.492;2022-08-18T00:32:27;13.35;;;7.32;;
44143;SDS011;43510;51.920;4.492;2022-08-18T00:34:54;18.25;;;7.88;;
44143;SDS011;43510;51.920;4.492;2022-08-18T00:37:20;11.73;;;6.93;;
44143;SDS011;43510;51.920;4.492;2022-08-18T00:39:49;14.15;;;7.28;;
44143;SDS011;43510;51.920;4.492;2022-08-18T00:42:17;15.48;;;7.70;;
44143;SDS011;43510;51.920;4.492;2022-08-18T00:44:45;18.23;;;8.02;;
44143;SDS011;43510;51.920;4.492;2022-08-18T00:47:10;14.55;;;7.55;;
44143;SDS011;43510;51.920;4.492;2022-08-18T00:49:36;17.35;;;8.07;;
44143;SDS011;43510;51.920;4.492;2022-08-18T00:52:05;16.95;;;7.28;;
44143;SDS011;43510;51.920;4.492;2022-08-18T00:54:31;13.45;;;6.85;;
44143;SDS011;43510;51.920;4.492;2022-08-18T00:56:59;13.35;;;6.75;;
44143;SDS011;43510;51.920;4.492;2022-08-18T01:02:20;14.10;;;7.15;;
44143;SDS011;43510;51.920;4.492;2022-08-18T01:04:51;13.68;;;6.40;;
44143;SDS011;43510;51.920;4.492;2022-08-18T01:07:34;15.40;;;6.53;;
44143;SDS011;43510;51.920;4.492;2022-08-18T01:10:04;16.00;;;7.18;;
44143;SDS011;43510;51.920;4.492;2022-08-18T01:12:30;13.80;;;6.63;;
44143;SDS011;43510;51.920;4.492;2022-08-18T01:14:57;17.27;;;6.15;;
44143;SDS011;43510;51.920;4.492;2022-08-18T01:17:23;16.08;;;6.18;;
44143;SDS011;43510;51.920;4.492;2022-08-18T01:20:12;17.17;;;6.03;;
44143;SDS011;43510;51.920;4.492;2022-08-18T01:23:01;12.15;;;5.70;;
44143;SDS011;43510;51.920;4.492;2022-08-18T01:25:35;11.80;;;5.95;;
44143;SDS011;43510;51.920;4.492;2022-08-18T01:28:21;13.05;;;5.88;;
44143;SDS011;43510;51.920;4.492;2022-08-18T01:30:49;15.63;;;6.60;;
44143;SDS011;43510;51.920;4.492;2022-08-18T01:33:17;12.73;;;5.85;;
44143;SDS011;43510;51.920;4.492;2022-08-18T01:35:44;17.10;;;6.57;;
44143;SDS011;43510;51.920;4.492;2022-08-18T01:38:14;12.70;;;5.65;;
44143;SDS011;43510;51.920;4.492;2022-08-18T01:40:44;11.23;;;5.50;;
44143;SDS011;43510;51.920;4.492;2022-08-18T01:43:10;11.77;;;5.82;;
44143;SDS011;43510;51.920;4.492;2022-08-18T01:45:36;15.50;;;5.70;;
44143;SDS011;43510;51.920;4.492;2022-08-18T01:48:03;11.07;;;6.15;;
44143;SDS011;43510;51.920;4.492;2022-08-18T01:50:31;14.95;;;5.95;;
44143;SDS011;43510;51.920;4.492;2022-08-18T01:52:58;11.30;;;5.32;;
44143;SDS011;43510;51.920;4.492;2022-08-18T01:55:24;10.80;;;5.20;;
44143;SDS011;43510;51.920;4.492;2022-08-18T01:57:52;12.18;;;5.63;;
44143;SDS011;43510;51.920;4.492;2022-08-18T02:00:18;11.88;;;4.85;;
44143;SDS011;43510;51.920;4.492;2022-08-18T02:02:44;12.98;;;4.85;;
44143;SDS011;43510;51.920;4.492;2022-08-18T02:05:13;12.15;;;5.40;;
44143;SDS011;43510;51.920;4.492;2022-08-18T02:07:46;9.40;;;4.95;;
44143;SDS011;43510;51.920;4.492;2022-08-18T02:10:12;11.43;;;5.00;;
44143;SDS011;43510;51.920;4.492;2022-08-18T02:12:38;11.85;;;5.10;;
44143;SDS011;43510;51.920;4.492;2022-08-18T02:15:04;15.30;;;5.03;;
44143;SDS011;43510;51.920;4.492;2022-08-18T02:17:50;15.50;;;5.38;;
44143;SDS011;43510;51.920;4.492;2022-08-18T02:20:16;10.57;;;5.07;;
44143;SDS011;43510;51.920;4.492;2022-08-18T02:22:43;12.73;;;5.40;;
44143;SDS011;43510;51.920;4.492;2022-08-18T02:25:10;10.63;;;5.30;;
44143;SDS011;43510;51.920;4.492;2022-08-18T02:27:37;10.35;;;5.20;;
44143;SDS011;43510;51.920;4.492;2022-08-18T02:30:03;14.88;;;6.47;;
44143;SDS011;43510;51.920;4.492;2022-08-18T02:32:31;16.17;;;5.85;;
44143;SDS011;43510;51.920;4.492;2022-08-18T02:34:57;12.20;;;5.45;;
44143;SDS011;43510;51.920;4.492;2022-08-18T02:37:23;15.98;;;6.25;;
44143;SDS011;43510;51.920;4.492;2022-08-18T02:39:48;9.48;;;5.80;;
44143;SDS011;43510;51.920;4.492;2022-08-18T02:42:13;10.27;;;5.30;;
44143;SDS011;43510;51.920;4.492;2022-08-18T02:44:39;9.45;;;4.70;;
44143;SDS011;43510;51.920;4.492;2022-08-18T02:47:05;13.77;;;5.05;;
44143;SDS011;43510;51.920;4.492;2022-08-18T02:49:30;9.38;;;5.07;;
44143;SDS011;43510;51.920;4.492;2022-08-18T02:51:56;12.82;;;5.75;;
44143;SDS011;43510;51.920;4.492;2022-08-18T02:54:26;10.57;;;5.30;;
44143;SDS011;43510;51.920;4.492;2022-08-18T02:56:52;10.20;;;5.50;;
44143;SDS011;43510;51.920;4.492;2022-08-18T02:59:19;14.07;;;5.90;;
44143;SDS011;43510;51.920;4.492;2022-08-18T03:01:49;14.05;;;5.68;;
44143;SDS011;43510;51.920;4.492;2022-08-18T03:04:24;8.85;;;4.90;;
44143;SDS011;43510;51.920;4.492;2022-08-18T03:06:51;11.30;;;5.63;;
44143;SDS011;43510;51.920;4.492;2022-08-18T03:09:21;8.65;;;4.53;;
44143;SDS011;43510;51.920;4.492;2022-08-18T03:11:47;8.65;;;5.47;;
44143;SDS011;43510;51.920;4.492;2022-08-18T03:14:13;10.32;;;5.10;;
44143;SDS011;43510;51.920;4.492;2022-08-18T03:16:45;12.20;;;5.88;;
44143;SDS011;43510;51.920;4.492;2022-08-18T03:19:12;10.55;;;5.18;;
44143;SDS011;43510;51.920;4.492;2022-08-18T03:21:40;10.23;;;5.43;;
44143;SDS011;43510;51.920;4.492;2022-08-18T03:24:07;13.45;;;5.85;;
44143;SDS011;43510;51.920;4.492;2022-08-18T03:26:32;12.55;;;5.75;;
44143;SDS011;43510;51.920;4.492;2022-08-18T03:28:58;12.85;;;5.22;;
44143;SDS011;43510;51.920;4.492;2022-08-18T03:31:25;11.30;;;5.88;;
44143;SDS011;43510;51.920;4.492;2022-08-18T03:33:54;13.68;;;5.97;;
44143;SDS011;43510;51.920;4.492;2022-08-18T03:36:22;14.00;;;6.10;;
44143;SDS011;43510;51.920;4.492;2022-08-18T03:38:51;15.60;;;6.30;;
44143;SDS011;43510;51.920;4.492;2022-08-18T03:41:20;12.55;;;5.97;;
44143;SDS011;43510;51.920;4.492;2022-08-18T03:43:48;13.65;;;6.10;;
44143;SDS011;43510;51.920;4.492;2022-08-18T03:46:15;15.30;;;6.90;;
44143;SDS011;43510;51.920;4.492;2022-08-18T03:48:43;19.30;;;6.60;;
44143;SDS011;43510;51.920;4.492;2022-08-18T03:51:18;12.07;;;6.57;;
44143;SDS011;43510;51.920;4.492;2022-08-18T03:53:47;10.57;;;7.05;;
44143;SDS011;43510;51.920;4.492;2022-08-18T03:56:14;16.52;;;7.63;;
44143;SDS011;43510;51.920;4.492;2022-08-18T03:58:42;9.75;;;6.00;;
44143;SDS011;43510;51.920;4.492;2022-08-18T04:01:12;12.13;;;5.72;;
44143;SDS011;43510;51.920;4.492;2022-08-18T04:03:42;13.43;;;6.85;;
44143;SDS011;43510;51.920;4.492;2022-08-18T04:06:15;9.63;;;6.07;;
44143;SDS011;43510;51.920;4.492;2022-08-18T04:08:42;13.43;;;6.45;;
44143;SDS011;43510;51.920;4.492;2022-08-18T04:11:08;9.60;;;6.15;;
44143;SDS011;43510;51.920;4.492;2022-08-18T04:13:34;12.18;;;6.30;;
44143;SDS011;43510;51.920;4.492;2022-08-18T04:16:01;11.52;;;6.80;;
44143;SDS011;43510;51.920;4.492;2022-08-18T04:18:27;14.38;;;6.93;;
44143;SDS011;43510;51.920;4.492;2022-08-18T04:20:54;13.70;;;7.05;;
44143;SDS011;43510;51.920;4.492;2022-08-18T04:23:19;11.98;;;6.68;;
44143;SDS011;43510;51.920;4.492;2022-08-18T04:25:54;14.75;;;7.43;;
44143;SDS011;43510;51.920;4.492;2022-08-18T04:28:22;11.38;;;6.75;;
44143;SDS011;43510;51.920;4.492;2022-08-18T04:30:50;12.90;;;7.30;;
44143;SDS011;43510;51.920;4.492;2022-08-18T04:33:17;13.60;;;7.65;;
44143;SDS011;43510;51.920;4.492;2022-08-18T04:35:42;13.05;;;8.27;;
44143;SDS011;43510;51.920;4.492;2022-08-18T04:38:08;12.05;;;7.50;;
44143;SDS011;43510;51.920;4.492;2022-08-18T04:40:34;13.65;;;8.05;;
44143;SDS011;43510;51.920;4.492;2022-08-18T04:43:00;15.90;;;7.68;;
44143;SDS011;43510;51.920;4.492;2022-08-18T04:45:26;17.60;;;8.48;;
44143;SDS011;43510;51.920;4.492;2022-08-18T04:47:55;18.23;;;8.35;;
44143;SDS011;43510;51.920;4.492;2022-08-18T04:50:22;14.15;;;7.82;;
44143;SDS011;43510;51.920;4.492;2022-08-18T04:52:48;14.55;;;7.85;;
44143;SDS011;43510;51.920;4.492;2022-08-18T04:55:32;13.57;;;7.13;;
44143;SDS011;43510;51.920;4.492;2022-08-18T04:57:57;14.68;;;7.50;;
44143;SDS011;43510;51.920;4.492;2022-08-18T05:00:23;19.35;;;8.60;;
44143;SDS011;43510;51.920;4.492;2022-08-18T05:02:49;15.93;;;9.07;;
44143;SDS011;43510;51.920;4.492;2022-08-18T05:05:15;14.75;;;8.68;;
44143;SDS011;43510;51.920;4.492;2022-08-18T05:07:44;15.45;;;8.82;;
44143;SDS011;43510;51.920;4.492;2022-08-18T05:10:11;11.90;;;7.68;;
44143;SDS011;43510;51.920;4.492;2022-08-18T05:12:37;12.38;;;7.88;;
44143;SDS011;43510;51.920;4.492;2022-08-18T05:15:05;13.57;;;7.60;;
44143;SDS011;43510;51.920;4.492;2022-08-18T05:17:31;12.90;;;7.15;;
44143;SDS011;43510;51.920;4.492;2022-08-18T05:19:59;13.70;;;7.78;;
44143;SDS011;43510;51.920;4.492;2022-08-18T05:22:24;16.38;;;8.23;;
44143;SDS011;43510;51.920;4.492;2022-08-18T05:24:50;13.15;;;7.30;;
44143;SDS011;43510;51.920;4.492;2022-08-18T05:27:16;14.95;;;7.93;;
44143;SDS011;43510;51.920;4.492;2022-08-18T05:29:41;13.48;;;6.78;;
44143;SDS011;43510;51.920;4.492;2022-08-18T05:32:07;13.73;;;6.45;;
44143;SDS011;43510;51.920;4.492;2022-08-18T05:34:33;14.63;;;6.95;;
44143;SDS011;43510;51.920;4.492;2022-08-18T05:42:13;11.20;;;6.43;;
44143;SDS011;43510;51.920;4.492;2022-08-18T05:44:45;14.35;;;6.75;;
44143;SDS011;43510;51.920;4.492;2022-08-18T05:49:41;15.55;;;6.25;;
44143;SDS011;43510;51.920;4.492;2022-08-18T05:52:13;11.70;;;5.35;;
44143;SDS011;43510;51.920;4.492;2022-08-18T05:54:49;9.77;;;5.40;;
44143;SDS011;43510;51.920;4.492;2022-08-18T05:57:44;9.88;;;5.78;;
44143;SDS011;43510;51.920;4.492;2022-08-18T06:00:15;16.05;;;6.60;;
44143;SDS011;43510;51.920;4.492;2022-08-18T06:02:50;10.55;;;5.22;;
44143;SDS011;43510;51.920;4.492;2022-08-18T06:05:27;8.00;;;5.25;;
44143;SDS011;43510;51.920;4.492;2022-08-18T06:10:27;9.23;;;4.93;;
44143;SDS011;43510;51.920;4.492;2022-08-18T06:12:59;8.18;;;4.30;;
44143;SDS011;43510;51.920;4.492;2022-08-18T06:32:27;10.27;;;4.65;;
44143;SDS011;43510;51.920;4.492;2022-08-18T06:37:52;11.52;;;4.28;;
44143;SDS011;43510;51.920;4.492;2022-08-18T06:40:38;10.27;;;4.15;;
44143;SDS011;43510;51.920;4.492;2022-08-18T06:43:05;6.55;;;3.97;;
44143;SDS011;43510;51.920;4.492;2022-08-18T06:45:42;10.52;;;4.38;;
44143;SDS011;43510;51.920;4.492;2022-08-18T06:48:19;8.73;;;3.92;;
44143;SDS011;43510;51.920;4.492;2022-08-18T06:51:07;8.15;;;3.85;;
44143;SDS011;43510;51.920;4.492;2022-08-18T06:53:49;6.28;;;3.42;;
44143;SDS011;43510;51.920;4.492;2022-08-18T06:56:25;9.65;;;3.97;;
44143;SDS011;43510;51.920;4.492;2022-08-18T06:59:18;5.82;;;2.75;;
44143;SDS011;43510;51.920;4.492;2022-08-18T07:05:00;10.57;;;3.72;;
44143;SDS011;43510;51.920;4.492;2022-08-18T07:10:00;8.80;;;3.23;;
44143;SDS011;43510;51.920;4.492;2022-08-18T07:12:29;6.60;;;2.90;;
44143;SDS011;43510;51.920;4.492;2022-08-18T07:15:01;6.55;;;3.25;;
44143;SDS011;43510;51.920;4.492;2022-08-18T07:17:29;7.03;;;2.90;;
44143;SDS011;43510;51.920;4.492;2022-08-18T07:23:25;7.22;;;3.03;;
44143;SDS011;43510;51.920;4.492;2022-08-18T07:25:36;6.90;;;2.50;;
44143;SDS011;43510;51.920;4.492;2022-08-18T07:28:03;5.88;;;2.63;;
44143;SDS011;43510;51.920;4.492;2022-08-18T07:30:31;5.75;;;2.63;;
44143;SDS011;43510;51.920;4.492;2022-08-18T07:33:08;5.28;;;2.88;;
44143;SDS011;43510;51.920;4.492;2022-08-18T07:38:23;8.73;;;2.63;;
44143;SDS011;43510;51.920;4.492;2022-08-18T07:40:58;5.72;;;2.92;;
44143;SDS011;43510;51.920;4.492;2022-08-18T07:46:34;5.72;;;2.83;;
44143;SDS011;43510;51.920;4.492;2022-08-18T07:49:25;6.50;;;2.75;;
44143;SDS011;43510;51.920;4.492;2022-08-18T07:57:37;7.90;;;3.60;;
44143;SDS011;43510;51.920;4.492;2022-08-18T08:02:45;10.70;;;3.13;;
44143;SDS011;43510;51.920;4.492;2022-08-18T08:08:07;7.47;;;3.15;;
44143;SDS011;43510;51.920;4.492;2022-08-18T08:11:31;7.30;;;3.20;;
44143;SDS011;43510;51.920;4.492;2022-08-18T08:19:21;5.30;;;2.70;;
44143;SDS011;43510;51.920;4.492;2022-08-18T08:22:21;5.13;;;2.30;;
44143;SDS011;43510;51.920;4.492;2022-08-18T08:30:33;6.18;;;2.40;;
44143;SDS011;43510;51.920;4.492;2022-08-18T08:35:44;4.65;;;2.22;;
44143;SDS011;43510;51.920;4.492;2022-08-18T08:38:17;7.60;;;2.80;;
44143;SDS011;43510;51.920;4.492;2022-08-18T08:40:48;4.40;;;2.33;;
44143;SDS011;43510;51.920;4.492;2022-08-18T08:43:26;6.07;;;2.72;;
44143;SDS011;43510;51.920;4.492;2022-08-18T08:46:02;5.00;;;1.75;;
44143;SDS011;43510;51.920;4.492;2022-08-18T08:48:38;4.25;;;1.75;;
44143;SDS011;43510;51.920;4.492;2022-08-18T08:56:18;3.97;;;1.85;;
44143;SDS011;43510;51.920;4.492;2022-08-18T08:58:48;3.45;;;1.63;;
44143;SDS011;43510;51.920;4.492;2022-08-18T09:06:55;4.47;;;1.42;;
44143;SDS011;43510;51.920;4.492;2022-08-18T09:12:26;4.38;;;1.63;;
44143;SDS011;43510;51.920;4.492;2022-08-18T09:15:18;3.55;;;1.70;;
44143;SDS011;43510;51.920;4.492;2022-08-18T09:18:00;4.05;;;1.30;;
44143;SDS011;43510;51.920;4.492;2022-08-18T09:23:26;3.25;;;1.38;;
44143;SDS011;43510;51.920;4.492;2022-08-18T09:25:58;3.65;;;1.40;;
44143;SDS011;43510;51.920;4.492;2022-08-18T09:28:57;4.05;;;1.58;;
44143;SDS011;43510;51.920;4.492;2022-08-18T09:31:26;4.90;;;1.20;;
44143;SDS011;43510;51.920;4.492;2022-08-18T09:36:57;3.83;;;1.67;;
44143;SDS011;43510;51.920;4.492;2022-08-18T09:39:39;4.60;;;1.42;;
44143;SDS011;43510;51.920;4.492;2022-08-18T09:42:36;3.78;;;1.30;;
44143;SDS011;43510;51.920;4.492;2022-08-18T09:45:07;4.03;;;1.30;;
44143;SDS011;43510;51.920;4.492;2022-08-18T09:57:42;5.05;;;1.35;;
44143;SDS011;43510;51.920;4.492;2022-08-18T10:19:11;2.70;;;1.20;;
44143;SDS011;43510;51.920;4.492;2022-08-18T10:22:02;3.60;;;1.50;;
44143;SDS011;43510;51.920;4.492;2022-08-18T10:26:59;1.70;;;0.90;;
44143;SDS011;43510;51.920;4.492;2022-08-18T10:36:53;3.10;;;1.10;;
44143;SDS011;43510;51.920;4.492;2022-08-18T10:40:12;4.38;;;1.02;;
44143;SDS011;43510;51.920;4.492;2022-08-18T10:42:32;7.80;;;1.15;;
44143;SDS011;43510;51.920;4.492;2022-08-18T10:51:01;2.40;;;1.23;;
44143;SDS011;43510;51.920;4.492;2022-08-18T10:56:33;2.20;;;1.00;;
44143;SDS011;43510;51.920;4.492;2022-08-18T11:04:43;2.30;;;1.00;;
44143;SDS011;43510;51.920;4.492;2022-08-18T11:07:21;3.40;;;1.00;;
44143;SDS011;43510;51.920;4.492;2022-08-18T11:09:53;1.67;;;0.90;;
44143;SDS011;43510;51.920;4.492;2022-08-18T11:15:18;2.95;;;1.40;;
44143;SDS011;43510;51.920;4.492;2022-08-18T11:20:34;3.65;;;1.10;;
44143;SDS011;43510;51.920;4.492;2022-08-18T11:23:00;3.13;;;1.20;;
44143;SDS011;43510;51.920;4.492;2022-08-18T11:25:28;3.40;;;0.95;;
44143;SDS011;43510;51.920;4.492;2022-08-18T11:27:59;1.65;;;0.80;;
44143;SDS011;43510;51.920;4.492;2022-08-18T11:30:28;2.45;;;0.80;;
44143;SDS011;43510;51.920;4.492;2022-08-18T11:33:01;2.47;;;1.00;;
44143;SDS011;43510;51.920;4.492;2022-08-18T11:35:30;6.07;;;1.00;;
44143;SDS011;43510;51.920;4.492;2022-08-18T11:38:01;6.20;;;1.20;;
44143;SDS011;43510;51.920;4.492;2022-08-18T11:40:33;3.20;;;0.93;;
44143;SDS011;43510;51.920;4.492;2022-08-18T11:48:17;3.78;;;1.10;;
44143;SDS011;43510;51.920;4.492;2022-08-18T11:51:16;6.30;;;1.40;;
44143;SDS011;43510;51.920;4.492;2022-08-18T11:53:58;4.72;;;1.20;;
44143;SDS011;43510;51.920;4.492;2022-08-18T11:56:27;10.10;;;1.88;;
44143;SDS011;43510;51.920;4.492;2022-08-18T12:04:43;4.85;;;1.52;;
44143;SDS011;43510;51.920;4.492;2022-08-18T12:07:05;4.10;;;1.15;;
44143;SDS011;43510;51.920;4.492;2022-08-18T12:09:36;4.25;;;1.42;;
44143;SDS011;43510;51.920;4.492;2022-08-18T12:12:22;3.67;;;1.30;;
44143;SDS011;43510;51.920;4.492;2022-08-18T12:14:53;4.45;;;1.15;;
44143;SDS011;43510;51.920;4.492;2022-08-18T12:19:45;3.92;;;1.35;;
44143;SDS011;43510;51.920;4.492;2022-08-18T12:22:17;5.45;;;1.73;;
44143;SDS011;43510;51.920;4.492;2022-08-18T12:24:48;5.38;;;1.27;;
44143;SDS011;43510;51.920;4.492;2022-08-18T12:27:15;4.53;;;1.77;;
44143;SDS011;43510;51.920;4.492;2022-08-18T12:29:42;6.38;;;2.05;;
44143;SDS011;43510;51.920;4.492;2022-08-18T12:32:08;4.93;;;1.95;;
44143;SDS011;43510;51.920;4.492;2022-08-18T12:34:34;3.85;;;1.33;;
44143;SDS011;43510;51.920;4.492;2022-08-18T12:37:00;3.22;;;1.10;;
44143;SDS011;43510;51.920;4.492;2022-08-18T12:39:26;3.75;;;1.20;;
44143;SDS011;43510;51.920;4.492;2022-08-18T12:41:52;2.55;;;1.00;;
44143;SDS011;43510;51.920;4.492;2022-08-18T12:44:18;6.38;;;1.20;;
44143;SDS011;43510;51.920;4.492;2022-08-18T12:46:43;2.85;;;1.23;;
44143;SDS011;43510;51.920;4.492;2022-08-18T12:49:11;3.72;;;1.10;;
44143;SDS011;43510;51.920;4.492;2022-08-18T12:51:40;3.28;;;1.40;;
44143;SDS011;43510;51.920;4.492;2022-08-18T12:54:06;1.90;;;1.08;;
44143;SDS011;43510;51.920;4.492;2022-08-18T12:56:32;3.05;;;1.00;;
44143;SDS011;43510;51.920;4.492;2022-08-18T12:58:59;2.55;;;0.95;;
44143;SDS011;43510;51.920;4.492;2022-08-18T13:01:26;3.05;;;1.10;;
44143;SDS011;43510;51.920;4.492;2022-08-18T13:03:52;3.30;;;1.13;;
44143;SDS011;43510;51.920;4.492;2022-08-18T13:06:20;3.33;;;1.20;;
44143;SDS011;43510;51.920;4.492;2022-08-18T13:08:47;3.38;;;1.02;;
44143;SDS011;43510;51.920;4.492;2022-08-18T13:11:13;3.63;;;1.25;;
44143;SDS011;43510;51.920;4.492;2022-08-18T13:13:40;4.57;;;1.10;;
44143;SDS011;43510;51.920;4.492;2022-08-18T13:16:06;2.97;;;1.45;;
44143;SDS011;43510;51.920;4.492;2022-08-18T13:18:33;4.05;;;1.30;;
44143;SDS011;43510;51.920;4.492;2022-08-18T13:20:59;2.97;;;1.38;;
44143;SDS011;43510;51.920;4.492;2022-08-18T13:23:27;3.72;;;1.25;;
44143;SDS011;43510;51.920;4.492;2022-08-18T13:25:53;4.25;;;1.30;;
44143;SDS011;43510;51.920;4.492;2022-08-18T13:28:19;3.97;;;1.30;;
44143;SDS011;43510;51.920;4.492;2022-08-18T13:30:46;2.88;;;1.30;;
44143;SDS011;43510;51.920;4.492;2022-08-18T13:35:59;2.92;;;1.20;;
44143;SDS011;43510;51.920;4.492;2022-08-18T13:38:28;3.70;;;1.30;;
44143;SDS011;43510;51.920;4.492;2022-08-18T13:40:55;4.57;;;1.85;;
44143;SDS011;43510;51.920;4.492;2022-08-18T13:43:26;5.22;;;0.95;;
44143;SDS011;43510;51.920;4.492;2022-08-18T13:45:55;6.32;;;2.25;;
44143;SDS011;43510;51.920;4.492;2022-08-18T13:48:21;4.07;;;1.60;;
44143;SDS011;43510;51.920;4.492;2022-08-18T13:50:47;3.80;;;1.40;;
44143;SDS011;43510;51.920;4.492;2022-08-18T13:53:14;4.97;;;1.38;;
44143;SDS011;43510;51.920;4.492;2022-08-18T13:55:43;3.15;;;1.63;;
44143;SDS011;43510;51.920;4.492;2022-08-18T13:58:09;4.70;;;1.30;;
44143;SDS011;43510;51.920;4.492;2022-08-18T14:00:34;4.50;;;1.40;;
44143;SDS011;43510;51.920;4.492;2022-08-18T14:03:02;4.10;;;1.52;;
44143;SDS011;43510;51.920;4.492;2022-08-18T14:05:27;3.72;;;1.40;;
44143;SDS011;43510;51.920;4.492;2022-08-18T14:07:52;3.33;;;1.30;;
44143;SDS011;43510;51.920;4.492;2022-08-18T14:10:18;4.82;;;1.67;;
44143;SDS011;43510;51.920;4.492;2022-08-18T14:12:44;5.25;;;2.55;;
44143;SDS011;43510;51.920;4.492;2022-08-18T14:15:12;4.63;;;1.52;;
44143;SDS011;43510;51.920;4.492;2022-08-18T14:17:39;4.40;;;1.80;;
44143;SDS011;43510;51.920;4.492;2022-08-18T14:20:06;4.93;;;1.85;;
44143;SDS011;43510;51.920;4.492;2022-08-18T14:22:56;3.72;;;1.73;;
44143;SDS011;43510;51.920;4.492;2022-08-18T14:25:56;4.43;;;1.65;;
44143;SDS011;43510;51.920;4.492;2022-08-18T14:28:40;4.95;;;1.70;;
44143;SDS011;43510;51.920;4.492;2022-08-18T14:31:05;9.23;;;1.83;;
44143;SDS011;43510;51.920;4.492;2022-08-18T14:33:31;6.65;;;1.80;;
44143;SDS011;43510;51.920;4.492;2022-08-18T14:35:56;3.63;;;1.67;;
44143;SDS011;43510;51.920;4.492;2022-08-18T14:38:22;4.63;;;1.88;;
44143;SDS011;43510;51.920;4.492;2022-08-18T14:40:48;4.53;;;1.55;;
44143;SDS011;43510;51.920;4.492;2022-08-18T14:43:15;5.47;;;2.10;;
44143;SDS011;43510;51.920;4.492;2022-08-18T14:45:42;5.85;;;1.98;;
44143;SDS011;43510;51.920;4.492;2022-08-18T14:48:11;5.65;;;2.00;;
44143;SDS011;43510;51.920;4.492;2022-08-18T14:50:38;6.05;;;1.67;;
44143;SDS011;43510;51.920;4.492;2022-08-18T14:53:07;10.43;;;2.47;;
44143;SDS011;43510;51.920;4.492;2022-08-18T14:55:33;16.30;;;3.67;;
44143;SDS011;43510;51.920;4.492;2022-08-18T14:58:01;10.85;;;2.70;;
44143;SDS011;43510;51.920;4.492;2022-08-18T15:00:26;15.25;;;3.92;;
44143;SDS011;43510;51.920;4.492;2022-08-18T15:02:52;14.60;;;4.07;;
44143;SDS011;43510;51.920;4.492;2022-08-18T15:05:18;13.80;;;3.45;;
44143;SDS011;43510;51.920;4.492;2022-08-18T15:07:43;9.27;;;3.55;;
44143;SDS011;43510;51.920;4.492;2022-08-18T15:10:11;10.77;;;4.22;;
44143;SDS011;43510;51.920;4.492;2022-08-18T15:12:37;12.15;;;4.00;;
44143;SDS011;43510;51.920;4.492;2022-08-18T15:15:05;7.10;;;2.97;;
44143;SDS011;43510;51.920;4.492;2022-08-18T15:17:32;9.45;;;3.60;;
44143;SDS011;43510;51.920;4.492;2022-08-18T15:20:02;5.68;;;3.20;;
44143;SDS011;43510;51.920;4.492;2022-08-18T15:22:29;15.70;;;3.08;;
44143;SDS011;43510;51.920;4.492;2022-08-18T15:25:13;9.73;;;3.40;;
44143;SDS011;43510;51.920;4.492;2022-08-18T15:27:58;8.15;;;2.78;;
44143;SDS011;43510;51.920;4.492;2022-08-18T15:30:23;7.70;;;2.80;;
44143;SDS011;43510;51.920;4.492;2022-08-18T15:32:49;7.32;;;2.55;;
44143;SDS011;43510;51.920;4.492;2022-08-18T15:35:14;7.78;;;2.53;;
44143;SDS011;43510;51.920;4.492;2022-08-18T15:37:40;5.20;;;2.20;;
44143;SDS011;43510;51.920;4.492;2022-08-18T15:40:09;11.05;;;3.08;;
44143;SDS011;43510;51.920;4.492;2022-08-18T15:42:36;6.45;;;2.70;;
44143;SDS011;43510;51.920;4.492;2022-08-18T15:47:31;7.80;;;2.92;;
44143;SDS011;43510;51.920;4.492;2022-08-18T15:50:00;5.30;;;2.50;;
44143;SDS011;43510;51.920;4.492;2022-08-18T15:52:25;9.32;;;2.45;;
44143;SDS011;43510;51.920;4.492;2022-08-18T15:54:51;9.70;;;2.70;;
44143;SDS011;43510;51.920;4.492;2022-08-18T15:57:16;7.10;;;2.30;;
44143;SDS011;43510;51.920;4.492;2022-08-18T15:59:42;8.45;;;2.65;;
44143;SDS011;43510;51.920;4.492;2022-08-18T16:02:08;6.22;;;2.55;;
44143;SDS011;43510;51.920;4.492;2022-08-18T16:07:05;6.83;;;2.10;;
44143;SDS011;43510;51.920;4.492;2022-08-18T16:09:30;9.45;;;4.78;;
44143;SDS011;43510;51.920;4.492;2022-08-18T16:11:55;8.98;;;4.47;;
44143;SDS011;43510;51.920;4.492;2022-08-18T16:14:21;7.07;;;3.72;;
44143;SDS011;43510;51.920;4.492;2022-08-18T16:16:46;10.10;;;3.00;;
44143;SDS011;43510;51.920;4.492;2022-08-18T16:19:12;7.13;;;3.15;;
44143;SDS011;43510;51.920;4.492;2022-08-18T16:21:37;5.75;;;2.35;;
44143;SDS011;43510;51.920;4.492;2022-08-18T16:24:04;5.55;;;2.20;;
44143;SDS011;43510;51.920;4.492;2022-08-18T16:26:31;9.30;;;2.15;;
44143;SDS011;43510;51.920;4.492;2022-08-18T16:28:57;6.63;;;2.22;;
44143;SDS011;43510;51.920;4.492;2022-08-18T16:31:24;5.38;;;2.20;;
44143;SDS011;43510;51.920;4.492;2022-08-18T16:33:54;8.25;;;2.22;;
44143;SDS011;43510;51.920;4.492;2022-08-18T16:38:50;6.53;;;2.40;;
44143;SDS011;43510;51.920;4.492;2022-08-18T16:41:18;6.97;;;1.90;;
44143;SDS011;43510;51.920;4.492;2022-08-18T16:43:47;8.90;;;2.85;;
44143;SDS011;43510;51.920;4.492;2022-08-18T16:46:17;6.18;;;2.33;;
44143;SDS011;43510;51.920;4.492;2022-08-18T16:48:47;7.63;;;2.40;;
44143;SDS011;43510;51.920;4.492;2022-08-18T16:51:13;6.05;;;2.10;;
44143;SDS011;43510;51.920;4.492;2022-08-18T16:53:41;3.53;;;1.63;;
44143;SDS011;43510;51.920;4.492;2022-08-18T16:56:13;6.05;;;2.03;;
44143;SDS011;43510;51.920;4.492;2022-08-18T16:58:45;7.18;;;2.13;;
44143;SDS011;43510;51.920;4.492;2022-08-18T17:01:29;6.65;;;2.03;;
44143;SDS011;43510;51.920;4.492;2022-08-18T17:04:14;7.53;;;2.08;;
44143;SDS011;43510;51.920;4.492;2022-08-18T17:06:44;5.25;;;2.13;;
44143;SDS011;43510;51.920;4.492;2022-08-18T17:09:09;7.38;;;2.60;;
44143;SDS011;43510;51.920;4.492;2022-08-18T17:11:35;5.95;;;2.35;;
44143;SDS011;43510;51.920;4.492;2022-08-18T17:14:03;7.35;;;2.30;;
44143;SDS011;43510;51.920;4.492;2022-08-18T17:16:31;9.30;;;2.28;;
44143;SDS011;43510;51.920;4.492;2022-08-18T17:18:58;5.75;;;2.15;;
44143;SDS011;43510;51.920;4.492;2022-08-18T17:21:25;5.15;;;2.22;;
44143;SDS011;43510;51.920;4.492;2022-08-18T17:23:52;5.82;;;2.20;;
44143;SDS011;43510;51.920;4.492;2022-08-18T17:26:39;7.20;;;2.90;;
44143;SDS011;43510;51.920;4.492;2022-08-18T17:29:19;6.10;;;2.28;;
44143;SDS011;43510;51.920;4.492;2022-08-18T17:31:56;7.28;;;2.40;;
44143;SDS011;43510;51.920;4.492;2022-08-18T17:34:31;6.70;;;2.53;;
44143;SDS011;43510;51.920;4.492;2022-08-18T17:36:59;6.82;;;2.53;;
44143;SDS011;43510;51.920;4.492;2022-08-18T17:39:29;6.18;;;2.40;;
44143;SDS011;43510;51.920;4.492;2022-08-18T17:42:02;7.25;;;2.60;;
44143;SDS011;43510;51.920;4.492;2022-08-18T17:44:47;7.00;;;2.22;;
44143;SDS011;43510;51.920;4.492;2022-08-18T17:47:17;8.15;;;2.35;;
44143;SDS011;43510;51.920;4.492;2022-08-18T17:49:46;8.57;;;2.95;;
44143;SDS011;43510;51.920;4.492;2022-08-18T17:52:34;7.22;;;2.63;;
44143;SDS011;43510;51.920;4.492;2022-08-18T17:55:06;5.25;;;1.92;;